^^
Your Local Weather - Clay, NY Station Historical Data
Daily Summary for January 5, 2018 Units:  Metric    English   Both
« Previous Day
Next Day »
Daily Weekly Monthly Yearly Custom
  High: Low: Average:
Temperature: -12.9 °C -16.7 °C -15.2 °C
Dew Point: -14.8 °C -18.8 °C -17.2 °C
Humidity: 86% 80% 85%
Wind Speed: 11.3km/h 1.6km/h 5.1km/h
Wind Gust: 24.1km/h - -
Wind- - WNW
Pressure: 1016.5 hPa 1005.6 hPa -
Precipitation: 0 mm    
Historical Graphs
 
 
Tabular Data for January 5, 2018
Time Temperature Dew Point Pressure Wind Wind Speed Wind Gust Humidity Rainfall Rate (Hourly) solar
00:04 -12.9 °C -14.8 °C 1005.6 hPa NNW 3.2 km/h 3.2 km/h 86% 0 mm 0 W/m2
00:12 -13.1 °C -15.1 °C 1005.6 hPa NW 4.8 km/h 4.8 km/h 85% 0 mm 0 W/m2
00:18 -13.2 °C -15.2 °C 1005.6 hPa NW 4.8 km/h 9.7 km/h 85% 0 mm 0 W/m2
00:24 -13.3 °C -15.3 °C 1005.6 hPa NW 4.8 km/h 8 km/h 85% 0 mm 0 W/m2
00:32 -13.4 °C -15.4 °C 1005.6 hPa NW 3.2 km/h 3.2 km/h 85% 0 mm 0 W/m2
00:38 -13.4 °C -15.4 °C 1005.6 hPa WNW 3.2 km/h 3.2 km/h 85% 0 mm 0 W/m2
00:44 -13.5 °C -15.5 °C 1005.6 hPa NW 3.2 km/h 3.2 km/h 85% 0 mm 0 W/m2
00:50 -13.7 °C -15.7 °C 1005.6 hPa NW 3.2 km/h 8 km/h 85% 0 mm 0 W/m2
00:56 -13.8 °C -15.8 °C 1005.6 hPa NNW 4.8 km/h 8 km/h 85% 0 mm 0 W/m2
01:02 -13.9 °C -15.9 °C 1005.6 hPa WNW 3.2 km/h 4.8 km/h 85% 0 mm 0 W/m2
01:04 -14 °C -16 °C 1005.6 hPa WNW 3.2 km/h 4.8 km/h 85% 0 mm 0 W/m2
01:10 -14.1 °C -16.1 °C 1005.6 hPa WNW 3.2 km/h 4.8 km/h 85% 0 mm 0 W/m2
01:16 -14.2 °C -16.3 °C 1005.6 hPa West 3.2 km/h 6.4 km/h 84% 0 mm 0 W/m2
01:22 -14.2 °C -16.3 °C 1005.6 hPa WNW 4.8 km/h 8 km/h 84% 0 mm 0 W/m2
01:30 -14.3 °C -16.4 °C 1005.6 hPa WNW 3.2 km/h 3.2 km/h 84% 0 mm 0 W/m2
01:36 -14.4 °C -16.5 °C 1005.6 hPa WNW 3.2 km/h 4.8 km/h 84% 0 mm 0 W/m2
01:42 -14.4 °C -16.6 °C 1006 hPa NW 3.2 km/h 3.2 km/h 84% 0 mm 0 W/m2
01:48 -14.5 °C -16.6 °C 1006 hPa WNW 3.2 km/h 3.2 km/h 84% 0 mm 0 W/m2
01:54 -14.6 °C -16.7 °C 1006 hPa WNW 3.2 km/h 4.8 km/h 84% 0 mm 0 W/m2
02:00 -14.6 °C -16.7 °C 1006 hPa WNW 3.2 km/h 3.2 km/h 84% 0 mm 0 W/m2
02:06 -14.6 °C -16.7 °C 1006.3 hPa West 3.2 km/h 3.2 km/h 84% 0 mm 0 W/m2
02:12 -14.7 °C -16.8 °C 1006.3 hPa NW 3.2 km/h 3.2 km/h 84% 0 mm 0 W/m2
02:18 -14.7 °C -16.8 °C 1006.3 hPa NW 3.2 km/h 3.2 km/h 84% 0 mm 0 W/m2
02:22 -14.8 °C -16.9 °C 1006.3 hPa WNW 3.2 km/h 4.8 km/h 84% 0 mm 0 W/m2
02:28 -14.8 °C -16.9 °C 1006.3 hPa WNW 3.2 km/h 4.8 km/h 84% 0 mm 0 W/m2
02:32 -14.9 °C -17 °C 1006.7 hPa WNW 1.6 km/h 3.2 km/h 84% 0 mm 0 W/m2
02:38 -15 °C -17.1 °C 1006.7 hPa NW 3.2 km/h 8 km/h 84% 0 mm 0 W/m2
02:44 -15.1 °C -17.2 °C 1006.7 hPa NW 3.2 km/h 3.2 km/h 84% 0 mm 0 W/m2
02:50 -15.1 °C -17.2 °C 1006.7 hPa WNW 3.2 km/h 3.2 km/h 84% 0 mm 0 W/m2
02:58 -15.2 °C -17.3 °C 1006.7 hPa WNW 3.2 km/h 4.8 km/h 84% 0 mm 0 W/m2
03:04 -15.2 °C -17.3 °C 1006.7 hPa NW 4.8 km/h 4.8 km/h 84% 0 mm 0 W/m2
03:10 -15.3 °C -17.4 °C 1006.7 hPa NW 4.8 km/h 4.8 km/h 84% 0 mm 0 W/m2
03:16 -15.4 °C -17.5 °C 1006.7 hPa WNW 4.8 km/h 4.8 km/h 84% 0 mm 0 W/m2
03:22 -15.4 °C -17.6 °C 1006.7 hPa WNW 4.8 km/h 4.8 km/h 84% 0 mm 0 W/m2
03:30 -15.6 °C -17.7 °C 1006.7 hPa NW 3.2 km/h 3.2 km/h 84% 0 mm 0 W/m2
03:36 -15.7 °C -17.8 °C 1007 hPa WNW 1.6 km/h 4.8 km/h 84% 0 mm 0 W/m2
03:42 -15.7 °C -17.8 °C 1007 hPa WNW 1.6 km/h 1.6 km/h 84% 0 mm 0 W/m2
03:50 -15.7 °C -17.8 °C 1007 hPa NW 1.6 km/h 3.2 km/h 84% 0 mm 0 W/m2
03:56 -15.7 °C -17.8 °C 1007 hPa WNW 3.2 km/h 6.4 km/h 84% 0 mm 0 W/m2
04:02 -15.7 °C -17.8 °C 1007 hPa WNW 4.8 km/h 8 km/h 84% 0 mm 0 W/m2
04:08 -15.8 °C -17.9 °C 1007.3 hPa WNW 4.8 km/h 8 km/h 84% 0 mm 0 W/m2
04:14 -15.8 °C -17.9 °C 1007.3 hPa WNW 3.2 km/h 4.8 km/h 84% 0 mm 0 W/m2
04:22 -15.8 °C -17.9 °C 1007.3 hPa WNW 3.2 km/h 4.8 km/h 84% 0 mm 0 W/m2
04:30 -15.8 °C -17.9 °C 1007.3 hPa NW 3.2 km/h 3.2 km/h 84% 0 mm 0 W/m2
04:36 -15.8 °C -17.9 °C 1007.3 hPa WNW 3.2 km/h 4.8 km/h 84% 0 mm 0 W/m2
04:42 -15.9 °C -17.9 °C 1007.3 hPa NW 3.2 km/h 6.4 km/h 84% 0 mm 0 W/m2
04:50 -15.9 °C -18 °C 1007.3 hPa WNW 3.2 km/h 3.2 km/h 84% 0 mm 0 W/m2
04:56 -16.1 °C -18.1 °C 1007.3 hPa NNW 4.8 km/h 6.4 km/h 84% 0 mm 0 W/m2
05:02 -16.2 °C -18.2 °C 1007.7 hPa NW 4.8 km/h 6.4 km/h 84% 0 mm 0 W/m2
05:08 -16.2 °C -18.3 °C 1007.7 hPa NW 4.8 km/h 6.4 km/h 84% 0 mm 0 W/m2
05:24 -16.4 °C -18.4 °C 1007.7 hPa WNW 4.8 km/h 6.4 km/h 84% 0 mm 0 W/m2
05:30 -16.4 °C -18.4 °C 1007.7 hPa NNW 3.2 km/h 3.2 km/h 84% 0 mm 0 W/m2
05:36 -16.4 °C -18.4 °C 1008 hPa NW 3.2 km/h 4.8 km/h 84% 0 mm 0 W/m2
05:42 -16.4 °C -18.5 °C 1008 hPa NW 3.2 km/h 4.8 km/h 84% 0 mm 0 W/m2
05:48 -16.4 °C -18.5 °C 1008 hPa NW 3.2 km/h 4.8 km/h 84% 0 mm 0 W/m2
05:54 -16.4 °C -18.5 °C 1008.4 hPa NW 3.2 km/h 3.2 km/h 84% 0 mm 0 W/m2
06:00 -16.4 °C -18.5 °C 1008.4 hPa WNW 3.2 km/h 3.2 km/h 84% 0 mm 0 W/m2
06:08 -16.4 °C -18.5 °C 1008.4 hPa WNW 3.2 km/h 3.2 km/h 84% 0 mm 0 W/m2
06:14 -16.4 °C -18.5 °C 1008.4 hPa WNW 1.6 km/h 4.8 km/h 84% 0 mm 0 W/m2
06:20 -16.4 °C -18.5 °C 1008.4 hPa NW 1.6 km/h 1.6 km/h 84% 0 mm 0 W/m2
06:26 -16.4 °C -18.4 °C 1008.4 hPa NW 1.6 km/h 1.6 km/h 84% 0 mm 0 W/m2
06:32 -16.4 °C -18.4 °C 1008.4 hPa WNW 1.6 km/h 6.4 km/h 84% 0 mm 0 W/m2
06:34 -16.4 °C -18.4 °C 1008.4 hPa NW 3.2 km/h 6.4 km/h 84% 0 mm 0 W/m2
06:40 -16.3 °C -18.3 °C 1008.7 hPa NW 3.2 km/h 3.2 km/h 84% 0 mm 0 W/m2
06:50 -16.2 °C -18.3 °C 1008.7 hPa NW 3.2 km/h 3.2 km/h 84% 0 mm 0 W/m2
06:56 -16.2 °C -18.2 °C 1008.7 hPa NW 3.2 km/h 3.2 km/h 84% 0 mm 0 W/m2
07:02 -16.2 °C -18.3 °C 1009 hPa NW 1.6 km/h 4.8 km/h 84% 0 mm 0 W/m2
07:08 -16.3 °C -18.4 °C 1009 hPa NW 3.2 km/h 8 km/h 84% 0 mm 0 W/m2
07:14 -16.4 °C -18.4 °C 1009 hPa NNW 3.2 km/h 4.8 km/h 84% 0 mm 0 W/m2
07:20 -16.5 °C -18.6 °C 1009 hPa NW 3.2 km/h 3.2 km/h 84% 0 mm 0 W/m2
07:26 -16.6 °C -18.7 °C 1009 hPa NNW 3.2 km/h 3.2 km/h 84% 0 mm 0 W/m2
07:32 -16.7 °C -18.7 °C 1009.4 hPa NNW 1.6 km/h 3.2 km/h 84% 0 mm 0 W/m2
07:38 -16.7 °C -18.8 °C 1009.4 hPa NW 1.6 km/h 6.4 km/h 84% 0 mm 0 W/m2
07:44 -16.7 °C -18.8 °C 1009.4 hPa NW 1.6 km/h 3.2 km/h 84% 0 mm 0 W/m2
07:50 -16.7 °C -18.8 °C 1009.4 hPa NW 1.6 km/h 1.6 km/h 84% 0 mm 0 W/m2
07:56 -16.7 °C -18.8 °C 1009.4 hPa NW 1.6 km/h 4.8 km/h 84% 0 mm 5 W/m2
08:02 -16.7 °C -18.8 °C 1009.7 hPa NW 1.6 km/h 3.2 km/h 84% 0 mm 5 W/m2
08:12 -16.7 °C -18.7 °C 1010 hPa North 1.6 km/h 3.2 km/h 84% 0 mm 7 W/m2
08:18 -16.7 °C -18.7 °C 1010 hPa NW 1.6 km/h 4.8 km/h 84% 0 mm 7 W/m2
08:26 -16.6 °C -18.7 °C 1010 hPa NNW 1.6 km/h 1.6 km/h 84% 0 mm 12 W/m2
08:32 -16.6 °C -18.6 °C 1010 hPa NNW 1.6 km/h 1.6 km/h 84% 0 mm 14 W/m2
08:38 -16.4 °C -18.5 °C 1010 hPa WNW 1.6 km/h 3.2 km/h 84% 0 mm 16 W/m2
08:46 -16.4 °C -18.5 °C 1010 hPa WNW 1.6 km/h 3.2 km/h 84% 0 mm 16 W/m2
08:54 -16.3 °C -18.4 °C 1010.4 hPa NNW 1.6 km/h 6.4 km/h 84% 0 mm 19 W/m2
09:00 -16.3 °C -18.4 °C 1010.4 hPa NW 1.6 km/h 6.4 km/h 84% 0 mm 21 W/m2
09:08 -16.3 °C -18.6 °C 1010.4 hPa NW 3.2 km/h 8 km/h 83% 0 mm 30 W/m2
09:16 -16.3 °C -18.6 °C 1010.4 hPa WNW 3.2 km/h 9.7 km/h 83% 0 mm 32 W/m2
09:22 -16.2 °C -18.4 °C 1010.4 hPa WNW 3.2 km/h 3.2 km/h 83% 0 mm 35 W/m2
09:28 -16.1 °C -18.3 °C 1010.4 hPa West 3.2 km/h 4.8 km/h 83% 0 mm 33 W/m2
09:34 -15.9 °C -18.1 °C 1010.4 hPa WNW 3.2 km/h 3.2 km/h 83% 0 mm 40 W/m2
09:40 -15.8 °C -18 °C 1010.4 hPa NW 3.2 km/h 4.8 km/h 83% 0 mm 40 W/m2
09:46 -15.8 °C -18.2 °C 1010.7 hPa WNW 4.8 km/h 6.4 km/h 82% 0 mm 42 W/m2
09:54 -15.8 °C -18.2 °C 1010.7 hPa WNW 4.8 km/h 6.4 km/h 82% 0 mm 37 W/m2
10:00 -15.8 °C -18.2 °C 1011.1 hPa NNW 4.8 km/h 4.8 km/h 82% 0 mm 54 W/m2
10:06 -15.7 °C -18.1 °C 1011.1 hPa NW 4.8 km/h 8 km/h 82% 0 mm 53 W/m2
10:18 -15.6 °C -18 °C 1011.1 hPa WNW 4.8 km/h 4.8 km/h 82% 0 mm 70 W/m2
10:24 -15.6 °C -18.1 °C 1011.1 hPa NW 4.8 km/h 4.8 km/h 81% 0 mm 79 W/m2
10:32 -15.4 °C -17.9 °C 1011.1 hPa WNW 6.4 km/h 6.4 km/h 81% 0 mm 70 W/m2
10:34 -15.3 °C -17.8 °C 1011.1 hPa WNW 6.4 km/h 6.4 km/h 81% 0 mm 74 W/m2
10:40 -15.3 °C -17.8 °C 1011.1 hPa WNW 4.8 km/h 4.8 km/h 81% 0 mm 67 W/m2
10:50 -15.7 °C -18.3 °C 1011.1 hPa NW 6.4 km/h 6.4 km/h 80% 0 mm 63 W/m2
10:56 -15.6 °C -18.1 °C 1011.1 hPa WNW 4.8 km/h 9.7 km/h 81% 0 mm 79 W/m2
11:08 -15.4 °C -18.1 °C 1011.1 hPa WNW 8 km/h 12.9 km/h 80% 0 mm 181 W/m2
11:14 -15.3 °C -17.8 °C 1011.1 hPa NW 8 km/h 9.7 km/h 81% 0 mm 244 W/m2
11:20 -14.9 °C -17.4 °C 1011.1 hPa NW 8 km/h 9.7 km/h 81% 0 mm 276 W/m2
11:28 -14.8 °C -17.4 °C 1011.1 hPa West 6.4 km/h 14.5 km/h 80% 0 mm 271 W/m2
11:36 -15.2 °C -17.7 °C 1011.1 hPa WNW 8 km/h 11.3 km/h 81% 0 mm 223 W/m2
11:42 -15.2 °C -17.6 °C 1011.1 hPa WNW 9.7 km/h 11.3 km/h 82% 0 mm 186 W/m2
11:54 -15.3 °C -17.6 °C 1011.1 hPa West 11.3 km/h 12.9 km/h 83% 0 mm 179 W/m2
12:00 -15.2 °C -17.4 °C 1011.1 hPa WNW 9.7 km/h 9.7 km/h 83% 0 mm 200 W/m2
12:06 -14.9 °C -17.2 °C 1011.1 hPa WNW 8 km/h 9.7 km/h 83% 0 mm 241 W/m2
12:16 -15 °C -17.2 °C 1011.1 hPa West 9.7 km/h 11.3 km/h 83% 0 mm 193 W/m2
12:22 -14.8 °C -17.1 °C 1010.7 hPa West 8 km/h 9.7 km/h 83% 0 mm 202 W/m2
12:28 -14.7 °C -16.9 °C 1010.7 hPa West 8 km/h 16.1 km/h 83% 0 mm 162 W/m2
12:40 -14.7 °C -16.8 °C 1010.7 hPa WNW 8 km/h 8 km/h 84% 0 mm 139 W/m2
12:46 -14.8 °C -17.1 °C 1010.7 hPa West 8 km/h 12.9 km/h 83% 0 mm 176 W/m2
12:54 -14.8 °C -16.9 °C 1010.7 hPa West 9.7 km/h 11.3 km/h 84% 0 mm 200 W/m2
13:00 -14.8 °C -16.9 °C 1010.7 hPa WNW 9.7 km/h 9.7 km/h 84% 0 mm 121 W/m2
13:08 -14.7 °C -16.8 °C 1011.1 hPa WNW 8 km/h 11.3 km/h 84% 0 mm 139 W/m2
13:20 -14.8 °C -16.9 °C 1011.1 hPa WNW 9.7 km/h 12.9 km/h 84% 0 mm 107 W/m2
13:26 -14.8 °C -16.9 °C 1011.1 hPa West 9.7 km/h 12.9 km/h 84% 0 mm 102 W/m2
13:34 -14.8 °C -16.9 °C 1011.1 hPa West 9.7 km/h 14.5 km/h 84% 0 mm 104 W/m2
13:42 -14.8 °C -16.9 °C 1011.1 hPa West 9.7 km/h 9.7 km/h 84% 0 mm 95 W/m2
13:48 -14.8 °C -16.9 °C 1011.4 hPa WNW 9.7 km/h 11.3 km/h 84% 0 mm 97 W/m2
13:54 -14.8 °C -16.9 °C 1011.1 hPa WNW 8 km/h 16.1 km/h 84% 0 mm 91 W/m2
14:00 -14.8 °C -16.9 °C 1011.4 hPa NW 8 km/h 9.7 km/h 84% 0 mm 88 W/m2
14:04 -14.8 °C -16.7 °C 1011.4 hPa West 8 km/h 12.9 km/h 85% 0 mm 74 W/m2
14:14 -14.7 °C -16.7 °C 1011.4 hPa West 8 km/h 8 km/h 85% 0 mm 76 W/m2
14:22 -14.8 °C -16.7 °C 1011.7 hPa NW 8 km/h 8 km/h 85% 0 mm 56 W/m2
14:28 -14.8 °C -16.8 °C 1011.7 hPa WNW 8 km/h 8 km/h 85% 0 mm 49 W/m2
14:34 -14.8 °C -16.8 °C 1011.7 hPa WSW 6.4 km/h 8 km/h 85% 0 mm 44 W/m2
14:40 -14.8 °C -16.7 °C 1011.7 hPa WSW 6.4 km/h 9.7 km/h 85% 0 mm 39 W/m2
14:46 -15.1 °C -17 °C 1011.7 hPa West 6.4 km/h 9.7 km/h 85% 0 mm 33 W/m2
14:52 -15.3 °C -17.3 °C 1012.1 hPa WSW 8 km/h 8 km/h 85% 0 mm 35 W/m2
15:00 -15.4 °C -17.4 °C 1012.1 hPa West 6.4 km/h 6.4 km/h 85% 0 mm 30 W/m2
15:08 -15.5 °C -17.4 °C 1012.1 hPa West 6.4 km/h 6.4 km/h 85% 0 mm 21 W/m2
15:14 -15.6 °C -17.5 °C 1012.1 hPa WNW 6.4 km/h 6.4 km/h 85% 0 mm 19 W/m2
15:20 -15.6 °C -17.5 °C 1012.1 hPa WSW 6.4 km/h 11.3 km/h 85% 0 mm 18 W/m2
15:24 -15.5 °C -17.4 °C 1012.1 hPa WSW 6.4 km/h 11.3 km/h 85% 0 mm 14 W/m2
15:30 -15.4 °C -17.4 °C 1012.1 hPa WNW 6.4 km/h 6.4 km/h 85% 0 mm 16 W/m2
15:36 -15.4 °C -17.3 °C 1012.4 hPa WNW 4.8 km/h 6.4 km/h 85% 0 mm 12 W/m2
15:42 -15.4 °C -17.3 °C 1012.4 hPa WSW 4.8 km/h 9.7 km/h 85% 0 mm 11 W/m2
15:48 -15.3 °C -17.3 °C 1012.4 hPa West 4.8 km/h 9.7 km/h 85% 0 mm 7 W/m2
15:54 -15.3 °C -17.3 °C 1012.8 hPa West 4.8 km/h 4.8 km/h 85% 0 mm 7 W/m2
16:00 -15.3 °C -17.3 °C 1012.8 hPa WSW 6.4 km/h 6.4 km/h 85% 0 mm 5 W/m2
16:08 -15.3 °C -17.3 °C 1012.8 hPa West 4.8 km/h 8 km/h 85% 0 mm 0 W/m2
16:14 -15.3 °C -17.2 °C 1012.8 hPa West 4.8 km/h 6.4 km/h 86% 0 mm 0 W/m2
16:24 -15.3 °C -17.2 °C 1013.1 hPa West 4.8 km/h 6.4 km/h 86% 0 mm 0 W/m2
16:28 -15.3 °C -17.2 °C 1013.1 hPa WNW 4.8 km/h 9.7 km/h 86% 0 mm 0 W/m2
16:34 -15.3 °C -17.2 °C 1013.1 hPa West 4.8 km/h 4.8 km/h 85% 0 mm 0 W/m2
16:40 -15.3 °C -17.2 °C 1013.1 hPa West 3.2 km/h 3.2 km/h 85% 0 mm 0 W/m2
16:46 -15.2 °C -17.2 °C 1013.1 hPa West 4.8 km/h 9.7 km/h 85% 0 mm 0 W/m2
16:54 -15.2 °C -17.2 °C 1013.1 hPa West 6.4 km/h 6.4 km/h 85% 0 mm 0 W/m2
17:00 -15.3 °C -17.2 °C 1013.1 hPa WNW 6.4 km/h 6.4 km/h 85% 0 mm 0 W/m2
17:06 -15.3 °C -17.2 °C 1013.4 hPa WNW 6.4 km/h 17.7 km/h 85% 0 mm 0 W/m2
17:12 -15.3 °C -17.2 °C 1013.4 hPa SW 6.4 km/h 6.4 km/h 86% 0 mm 0 W/m2
17:20 -15.3 °C -17.3 °C 1013.8 hPa WNW 4.8 km/h 11.3 km/h 85% 0 mm 0 W/m2
17:28 -15.3 °C -17.3 °C 1013.8 hPa West 4.8 km/h 11.3 km/h 85% 0 mm 0 W/m2
17:34 -15.3 °C -17.3 °C 1013.8 hPa WNW 4.8 km/h 4.8 km/h 85% 0 mm 0 W/m2
17:40 -15.3 °C -17.2 °C 1013.8 hPa West 4.8 km/h 6.4 km/h 86% 0 mm 0 W/m2
17:46 -15.3 °C -17.1 °C 1014.1 hPa WSW 4.8 km/h 6.4 km/h 86% 0 mm 0 W/m2
17:52 -15.2 °C -17.1 °C 1014.1 hPa West 4.8 km/h 4.8 km/h 86% 0 mm 0 W/m2
18:02 -15.2 °C -17 °C 1014.1 hPa WNW 4.8 km/h 6.4 km/h 86% 0 mm 0 W/m2
18:08 -15.2 °C -17 °C 1014.1 hPa West 4.8 km/h 6.4 km/h 86% 0 mm 0 W/m2
18:14 -15.1 °C -16.9 °C 1014.4 hPa WNW 3.2 km/h 4.8 km/h 86% 0 mm 0 W/m2
18:20 -15.1 °C -16.9 °C 1014.4 hPa West 3.2 km/h 3.2 km/h 86% 0 mm 0 W/m2
18:26 -15.1 °C -16.9 °C 1014.4 hPa West 1.6 km/h 4.8 km/h 86% 0 mm 0 W/m2
18:32 -15 °C -16.8 °C 1014.4 hPa West 3.2 km/h 6.4 km/h 86% 0 mm 0 W/m2
18:38 -14.9 °C -16.7 °C 1014.4 hPa WSW 3.2 km/h 6.4 km/h 86% 0 mm 0 W/m2
18:48 -14.7 °C -16.5 °C 1014.8 hPa NW 3.2 km/h 6.4 km/h 86% 0 mm 0 W/m2
18:54 -14.4 °C -16.2 °C 1014.8 hPa WNW 4.8 km/h 6.4 km/h 86% 0 mm 0 W/m2
18:56 -14.3 °C -16.2 °C 1014.8 hPa NW 4.8 km/h 6.4 km/h 86% 0 mm 0 W/m2
19:02 -14.2 °C -16 °C 1014.8 hPa NW 6.4 km/h 6.4 km/h 86% 0 mm 0 W/m2
19:08 -14.1 °C -15.9 °C 1014.8 hPa NW 6.4 km/h 12.9 km/h 86% 0 mm 0 W/m2
19:14 -14 °C -15.8 °C 1015.1 hPa WNW 6.4 km/h 9.7 km/h 86% 0 mm 0 W/m2
19:26 -13.9 °C -15.8 °C 1015.1 hPa NW 6.4 km/h 9.7 km/h 86% 0 mm 0 W/m2
19:30 -13.9 °C -15.8 °C 1015.5 hPa WNW 6.4 km/h 6.4 km/h 86% 0 mm 0 W/m2
19:36 -13.9 °C -15.8 °C 1015.1 hPa WNW 6.4 km/h 12.9 km/h 86% 0 mm 0 W/m2
19:42 -13.9 °C -15.8 °C 1015.1 hPa NW 6.4 km/h 8 km/h 86% 0 mm 0 W/m2
19:48 -13.9 °C -15.8 °C 1015.1 hPa NW 6.4 km/h 12.9 km/h 86% 0 mm 0 W/m2
19:54 -13.9 °C -15.8 °C 1015.5 hPa WNW 8 km/h 8 km/h 86% 0 mm 0 W/m2
20:00 -14 °C -15.8 °C 1015.5 hPa West 6.4 km/h 6.4 km/h 86% 0 mm 0 W/m2
20:10 -14.1 °C -15.9 °C 1015.5 hPa NW 6.4 km/h 6.4 km/h 86% 0 mm 0 W/m2
20:18 -14.1 °C -15.9 °C 1015.8 hPa WNW 8 km/h 9.7 km/h 86% 0 mm 0 W/m2
20:24 -14.2 °C -16 °C 1015.8 hPa WNW 8 km/h 9.7 km/h 86% 0 mm 0 W/m2
20:32 -14.2 °C -16.1 °C 1015.8 hPa NNW 6.4 km/h 11.3 km/h 86% 0 mm 0 W/m2
20:38 -14.3 °C -16.1 °C 1015.8 hPa WNW 8 km/h 11.3 km/h 86% 0 mm 0 W/m2
20:44 -14.3 °C -16.2 °C 1015.8 hPa NNW 9.7 km/h 16.1 km/h 86% 0 mm 0 W/m2
20:50 -14.4 °C -16.2 °C 1015.8 hPa NW 9.7 km/h 9.7 km/h 86% 0 mm 0 W/m2
20:58 -14.4 °C -16.3 °C 1015.8 hPa WNW 6.4 km/h 11.3 km/h 86% 0 mm 0 W/m2
21:04 -14.5 °C -16.3 °C 1015.8 hPa WNW 6.4 km/h 9.7 km/h 86% 0 mm 0 W/m2
21:12 -14.6 °C -16.4 °C 1016.1 hPa WNW 8 km/h 9.7 km/h 86% 0 mm 0 W/m2
21:18 -14.7 °C -16.6 °C 1016.1 hPa WNW 8 km/h 9.7 km/h 86% 0 mm 0 W/m2
21:24 -14.8 °C -16.6 °C 1016.1 hPa WNW 9.7 km/h 24.1 km/h 86% 0 mm 0 W/m2
21:30 -14.8 °C -16.7 °C 1016.1 hPa WNW 9.7 km/h 9.7 km/h 86% 0 mm 0 W/m2
21:36 -14.9 °C -16.7 °C 1016.1 hPa NW 8 km/h 12.9 km/h 86% 0 mm 0 W/m2
21:46 -14.9 °C -16.7 °C 1016.1 hPa WNW 6.4 km/h 9.7 km/h 86% 0 mm 0 W/m2
21:52 -14.9 °C -16.7 °C 1016.1 hPa West 6.4 km/h 9.7 km/h 86% 0 mm 0 W/m2
21:58 -14.9 °C -16.8 °C 1016.1 hPa NW 6.4 km/h 11.3 km/h 86% 0 mm 0 W/m2
22:04 -14.9 °C -16.8 °C 1016.1 hPa NW 6.4 km/h 11.3 km/h 86% 0 mm 0 W/m2
22:10 -14.9 °C -16.8 °C 1016.1 hPa WNW 6.4 km/h 6.4 km/h 86% 0 mm 0 W/m2
22:20 -15 °C -16.8 °C 1016.1 hPa NW 6.4 km/h 6.4 km/h 86% 0 mm 0 W/m2
22:28 -15.1 °C -16.9 °C 1016.1 hPa NNW 9.7 km/h 12.9 km/h 86% 0 mm 0 W/m2
22:36 -15.1 °C -16.9 °C 1016.5 hPa NW 9.7 km/h 12.9 km/h 86% 0 mm 0 W/m2
22:44 -15.2 °C -17 °C 1016.5 hPa WNW 8 km/h 8 km/h 86% 0 mm 0 W/m2
22:50 -15.2 °C -17 °C 1016.5 hPa NW 8 km/h 8 km/h 86% 0 mm 0 W/m2
23:00 -15.1 °C -16.9 °C 1016.5 hPa NW 8 km/h 8 km/h 86% 0 mm 0 W/m2
23:06 -15.1 °C -16.9 °C 1016.5 hPa NW 8 km/h 8 km/h 86% 0 mm 0 W/m2
23:16 -15.1 °C -16.9 °C 1016.5 hPa NW 6.4 km/h 9.7 km/h 86% 0 mm 0 W/m2
23:22 -15.1 °C -16.9 °C 1016.5 hPa NW 8 km/h 8 km/h 86% 0 mm 0 W/m2
23:28 -15.1 °C -16.9 °C 1016.5 hPa NW 9.7 km/h 9.7 km/h 86% 0 mm 0 W/m2
23:34 -15.1 °C -16.9 °C 1016.5 hPa WNW 8 km/h 9.7 km/h 86% 0 mm 0 W/m2
23:42 -15.1 °C -16.9 °C 1016.5 hPa NW 8 km/h 9.7 km/h 86% 0 mm 0 W/m2
23:48 -15.1 °C -16.9 °C 1016.5 hPa WNW 8 km/h 9.7 km/h 86% 0 mm 0 W/m2
23:56 -15.1 °C -16.9 °C 1016.5 hPa NNW 8 km/h 14.5 km/h 86% 0 mm 0 W/m2
Country Meadow, Clay, NY, USA
Compliments of Weather Underground - 2 mb